createdAt,value
2023-05-17T00:00:23.047Z,48730.38
2023-05-17T00:02:49.660Z,48714.69
2023-05-17T00:05:16.959Z,48759.75
2023-05-17T00:07:43.674Z,48740.16
2023-05-17T00:10:10.997Z,48702.94
2023-05-17T00:12:38.318Z,48706.84
2023-05-17T00:15:06.289Z,48730.38
2023-05-17T00:17:33.009Z,48724.50
2023-05-17T00:19:59.984Z,48714.69
2023-05-17T00:22:26.831Z,48738.19
2023-05-17T00:24:53.714Z,48734.28
2023-05-17T00:27:20.433Z,48734.28
2023-05-17T00:29:47.037Z,48724.50
2023-05-17T00:32:13.828Z,48742.13
2023-05-17T00:34:40.772Z,48702.94
2023-05-17T00:37:07.663Z,48730.38
2023-05-17T00:39:34.674Z,48726.44
2023-05-17T00:42:01.574Z,48757.78
2023-05-17T00:44:28.198Z,48734.28
2023-05-17T00:46:54.799Z,48716.66
2023-05-17T00:49:21.357Z,48699.03
2023-05-17T00:51:49.126Z,48712.72
2023-05-17T00:54:16.154Z,48718.59
2023-05-17T00:56:42.922Z,48746.03
2023-05-17T00:59:12.996Z,48714.69
2023-05-17T01:01:43.480Z,48710.78
2023-05-17T01:04:17.602Z,48722.53
2023-05-17T01:06:45.324Z,48746.03
2023-05-17T01:09:13.704Z,48728.41
2023-05-17T01:12:06.195Z,48710.78
2023-05-17T01:15:05.663Z,48697.06
2023-05-17T01:18:04.862Z,48726.44
2023-05-17T01:20:42.133Z,48740.16
2023-05-17T01:23:14.471Z,48736.25
2023-05-17T01:25:58.861Z,48730.38
2023-05-17T01:28:28.238Z,48714.69
2023-05-17T01:30:57.787Z,48738.19
2023-05-17T01:33:25.387Z,48722.53
2023-05-17T01:35:52.026Z,48699.03
2023-05-17T01:38:18.726Z,48730.38
2023-05-17T01:40:58.047Z,48691.19
2023-05-17T01:43:43.163Z,48732.31
2023-05-17T01:46:36.684Z,48722.53
2023-05-17T01:49:16.617Z,48714.69
2023-05-17T01:51:49.470Z,48710.78
2023-05-17T01:54:22.927Z,48742.13
2023-05-17T01:56:57.740Z,48702.94
2023-05-17T01:59:28.178Z,48718.59
2023-05-17T02:02:04.363Z,48732.31
2023-05-17T02:04:31.062Z,48706.84
2023-05-17T02:06:57.706Z,48712.72
2023-05-17T02:09:24.352Z,48714.69
2023-05-17T02:11:51.049Z,48712.72
2023-05-17T02:14:17.779Z,48730.38
2023-05-17T02:16:44.463Z,48691.19
2023-05-17T02:19:13.583Z,48710.78
2023-05-17T02:21:40.273Z,48700.97
2023-05-17T02:24:07.081Z,48710.78
2023-05-17T02:26:33.861Z,48718.59
2023-05-17T02:29:00.625Z,48699.03
2023-05-17T02:31:27.343Z,48706.84
2023-05-17T02:33:54.701Z,48714.69
2023-05-17T02:36:21.791Z,48718.59
2023-05-17T02:38:48.486Z,48699.03
2023-05-17T02:41:15.338Z,48722.53
2023-05-17T02:43:42.188Z,48712.72
2023-05-17T02:46:08.891Z,48687.28
2023-05-17T02:48:35.816Z,48699.03
2023-05-17T02:51:02.571Z,48702.94
2023-05-17T02:53:29.475Z,48699.03
2023-05-17T02:55:58.629Z,48722.53
2023-05-17T02:58:26.199Z,48716.66
2023-05-17T03:00:52.762Z,48691.19
2023-05-17T03:03:20.934Z,48718.59
2023-05-17T03:05:47.580Z,48702.94
2023-05-17T03:08:14.220Z,48706.84
2023-05-17T03:10:40.979Z,48706.84
2023-05-17T03:13:07.894Z,48734.28
2023-05-17T03:15:34.722Z,48714.69
2023-05-17T03:18:03.649Z,48714.69
2023-05-17T03:20:30.645Z,48730.38
2023-05-17T03:22:58.152Z,48699.03
2023-05-17T03:25:26.461Z,48687.28
2023-05-17T03:27:54.800Z,48706.84
2023-05-17T03:30:21.619Z,48720.56
2023-05-17T03:32:48.597Z,48712.72
2023-05-17T03:35:15.378Z,48726.44
2023-05-17T03:37:42.269Z,48683.34
2023-05-17T03:40:09.478Z,48699.03
2023-05-17T03:42:37.127Z,48699.03
2023-05-17T03:45:05.698Z,48730.38
2023-05-17T03:47:33.388Z,48687.28
2023-05-17T03:50:00.954Z,48695.09
2023-05-17T03:52:27.475Z,48702.94
2023-05-17T03:54:53.928Z,48714.69
2023-05-17T03:57:21.819Z,48681.41
2023-05-17T03:59:48.355Z,48691.19
2023-05-17T04:02:18.242Z,48716.66
2023-05-17T04:04:55.154Z,48708.81
2023-05-17T04:07:21.871Z,48695.09
2023-05-17T04:09:48.603Z,48702.94
2023-05-17T04:12:15.525Z,48673.56
2023-05-17T04:14:42.235Z,48695.09
2023-05-17T04:17:08.688Z,48714.69
2023-05-17T04:19:35.351Z,48726.44
2023-05-17T04:22:02.145Z,48675.50
2023-05-17T04:24:28.755Z,48718.59
2023-05-17T04:26:55.718Z,48708.81
2023-05-17T04:29:22.387Z,48699.03
2023-05-17T04:31:50.441Z,48726.44
2023-05-17T04:34:17.514Z,48718.59
2023-05-17T04:36:44.114Z,48710.78
2023-05-17T04:39:11.163Z,48726.44
2023-05-17T04:41:37.886Z,48722.53
2023-05-17T04:44:08.452Z,48700.97
2023-05-17T04:46:35.215Z,48702.94
2023-05-17T04:49:04.371Z,48702.94
2023-05-17T04:51:32.915Z,48706.84
2023-05-17T04:54:06.750Z,48699.03
2023-05-17T04:56:35.076Z,48710.78
2023-05-17T04:59:02.841Z,48710.78
2023-05-17T05:01:31.334Z,48695.09
2023-05-17T05:03:59.634Z,48702.94
2023-05-17T05:06:26.675Z,48687.28
2023-05-17T05:08:53.911Z,48718.59
2023-05-17T05:11:21.785Z,48706.84
2023-05-17T05:13:48.348Z,48691.19
2023-05-17T05:16:15.298Z,48695.09
2023-05-17T05:18:43.292Z,48700.97
2023-05-17T05:21:10.100Z,48691.19
2023-05-17T05:23:37.160Z,48718.59
2023-05-17T05:26:06.357Z,48699.03
2023-05-17T05:28:33.240Z,48722.53
2023-05-17T05:31:00.903Z,48710.78
2023-05-17T05:33:27.824Z,48704.91
2023-05-17T05:35:56.865Z,48714.69
2023-05-17T05:38:23.327Z,48702.94
2023-05-17T05:40:50.091Z,48699.03
2023-05-17T05:43:17.028Z,48718.59
2023-05-17T05:45:47.036Z,48714.69
2023-05-17T05:48:14.436Z,48706.84
2023-05-17T05:50:45.416Z,48718.59
2023-05-17T05:53:18.845Z,48702.94
2023-05-17T05:55:46.788Z,48726.44
2023-05-17T05:58:13.281Z,48710.78
2023-05-17T06:00:39.849Z,48699.03
2023-05-17T06:03:06.877Z,48706.84
2023-05-17T06:05:33.708Z,48710.78
2023-05-17T06:08:00.761Z,48726.44
2023-05-17T06:10:27.624Z,48706.84
2023-05-17T06:12:54.500Z,48699.03
2023-05-17T06:15:21.062Z,48710.78
2023-05-17T06:17:47.684Z,48722.53
2023-05-17T06:20:15.090Z,48702.94
2023-05-17T06:22:43.334Z,48714.69
2023-05-17T06:25:11.538Z,48720.56
2023-05-17T06:27:39.714Z,48710.78
2023-05-17T06:30:07.722Z,48691.19
2023-05-17T06:32:34.771Z,48710.78
2023-05-17T06:35:01.656Z,48702.94
2023-05-17T06:37:28.118Z,48718.59
2023-05-17T06:40:09.970Z,48700.97
2023-05-17T06:42:41.826Z,48716.66
2023-05-17T06:45:10.334Z,48720.56
2023-05-17T06:47:39.333Z,48710.78
2023-05-17T06:50:08.108Z,48734.28
2023-05-17T06:52:35.638Z,48710.78
2023-05-17T06:55:02.125Z,48722.53
2023-05-17T06:57:28.563Z,48718.59
2023-05-17T06:59:55.321Z,48726.44
2023-05-17T07:02:21.856Z,48730.38
2023-05-17T07:04:48.469Z,48740.16
2023-05-17T07:07:15.244Z,48734.28
2023-05-17T07:09:41.753Z,48742.13
2023-05-17T07:12:08.302Z,48734.28
2023-05-17T07:14:35.040Z,48742.13
2023-05-17T07:17:01.893Z,48726.44
2023-05-17T07:19:28.556Z,48722.53
2023-05-17T07:21:55.178Z,48718.59
2023-05-17T07:24:21.674Z,48699.03
2023-05-17T07:26:49.304Z,48704.91
2023-05-17T07:29:19.022Z,48716.66
2023-05-17T07:31:45.689Z,48714.69
2023-05-17T07:34:14.496Z,48722.53
2023-05-17T07:36:42.199Z,48714.69
2023-05-17T07:39:10.062Z,48726.44
2023-05-17T07:41:37.753Z,48718.59
2023-05-17T07:44:04.596Z,48704.91
2023-05-17T07:46:31.194Z,48742.13
2023-05-17T07:48:58.725Z,48722.53
2023-05-17T07:51:25.743Z,48716.66
2023-05-17T07:53:52.457Z,48757.78
2023-05-17T07:56:19.014Z,48738.19
2023-05-17T07:58:45.788Z,48734.28
2023-05-17T08:01:12.544Z,48734.28
2023-05-17T08:03:40.360Z,48700.97
2023-05-17T08:06:07.243Z,48746.03
2023-05-17T08:08:34.010Z,48714.69
2023-05-17T08:11:01.030Z,48722.53
2023-05-17T08:13:27.484Z,48742.13
2023-05-17T08:16:01.748Z,48738.19
2023-05-17T08:18:39.544Z,48740.16
2023-05-17T08:21:06.210Z,48746.03
2023-05-17T08:23:33.586Z,48726.44
2023-05-17T08:26:01.670Z,48732.31
2023-05-17T08:28:29.137Z,48714.69
2023-05-17T08:30:55.921Z,48730.38
2023-05-17T08:33:27.206Z,48722.53
2023-05-17T08:35:55.650Z,48730.38
2023-05-17T08:38:22.358Z,48726.44
2023-05-17T08:40:56.374Z,48726.44
2023-05-17T08:43:27.349Z,48722.53
2023-05-17T08:45:54.919Z,48738.19
2023-05-17T08:48:21.882Z,48730.38
2023-05-17T08:50:50.940Z,48712.72
2023-05-17T08:53:18.567Z,48734.28
2023-05-17T08:55:49.611Z,48746.03
2023-05-17T08:58:27.689Z,48742.13
2023-05-17T09:00:54.994Z,48757.78
2023-05-17T09:03:22.795Z,48730.38
2023-05-17T09:05:53.809Z,48722.53
2023-05-17T09:08:22.844Z,48722.53
2023-05-17T09:10:50.664Z,48732.31
2023-05-17T09:13:17.538Z,48718.59
2023-05-17T09:15:45.273Z,48742.13
2023-05-17T09:18:16.999Z,48734.28
2023-05-17T09:20:51.669Z,48742.13
2023-05-17T09:23:20.966Z,48738.19
2023-05-17T09:25:51.229Z,48734.28
2023-05-17T09:28:20.845Z,48757.78
2023-05-17T09:30:49.373Z,48722.53
2023-05-17T09:33:18.630Z,48724.50
2023-05-17T09:35:45.842Z,48734.28
2023-05-17T09:38:16.112Z,48714.69
2023-05-17T09:40:48.004Z,48740.16
2023-05-17T09:43:16.608Z,48736.25
2023-05-17T09:45:43.159Z,48740.16
2023-05-17T09:48:14.783Z,48730.38
2023-05-17T09:51:00.716Z,48742.13
2023-05-17T09:53:32.110Z,48740.16
2023-05-17T09:56:00.633Z,48736.25
2023-05-17T09:58:32.392Z,48730.38
2023-05-17T10:01:02.060Z,48722.53
2023-05-17T10:03:33.306Z,48734.28
2023-05-17T10:06:13.252Z,48720.56
2023-05-17T10:08:46.393Z,48744.06
2023-05-17T10:11:12.994Z,48710.78
2023-05-17T10:13:48.248Z,48738.19
2023-05-17T10:16:16.012Z,48742.13
2023-05-17T10:18:43.038Z,48734.28
2023-05-17T10:21:10.826Z,48753.88
2023-05-17T10:23:39.385Z,48722.53
2023-05-17T10:26:06.708Z,48746.03
2023-05-17T10:28:35.208Z,48746.03
2023-05-17T10:31:03.978Z,48710.78
2023-05-17T10:33:32.549Z,48722.53
2023-05-17T10:36:01.554Z,48734.28
2023-05-17T10:38:38.800Z,48722.53
2023-05-17T10:41:11.850Z,48755.84
2023-05-17T10:43:40.356Z,48728.41
2023-05-17T10:46:16.484Z,48728.41
2023-05-17T10:48:44.796Z,48728.41
2023-05-17T10:51:12.135Z,48714.69
2023-05-17T10:54:18.696Z,48746.03
2023-05-17T10:56:50.538Z,48753.88
2023-05-17T10:59:25.686Z,48722.53
2023-05-17T11:02:04.299Z,48744.06
2023-05-17T11:04:40.410Z,48746.03
2023-05-17T11:07:17.089Z,48738.19
2023-05-17T11:09:44.420Z,48753.88
2023-05-17T11:12:12.419Z,48738.19
2023-05-17T11:14:45.013Z,48730.38
2023-05-17T11:17:17.861Z,48742.13
2023-05-17T11:20:11.544Z,48736.25
2023-05-17T11:22:59.889Z,48726.44
2023-05-17T11:25:36.221Z,48722.53
2023-05-17T11:28:18.650Z,48726.44
2023-05-17T11:30:52.191Z,48742.13
2023-05-17T11:33:33.235Z,48708.81
2023-05-17T11:36:07.093Z,48761.72
2023-05-17T11:38:42.359Z,48761.72
2023-05-17T11:41:27.030Z,48763.66
2023-05-17T11:43:57.448Z,48714.69
2023-05-17T11:46:25.045Z,48746.03
2023-05-17T11:48:53.050Z,48736.25
2023-05-17T11:51:24.399Z,48734.28
2023-05-17T11:53:55.550Z,48730.38
2023-05-17T11:56:32.137Z,48742.13
2023-05-17T11:59:09.493Z,48736.25
2023-05-17T12:01:44.192Z,48722.53
2023-05-17T12:04:10.748Z,48730.38
2023-05-17T12:06:38.437Z,48740.16
2023-05-17T12:09:10.651Z,48738.19
2023-05-17T12:11:39.484Z,48742.13
2023-05-17T12:14:06.683Z,48738.19
2023-05-17T12:16:36.529Z,48718.59
2023-05-17T12:19:03.656Z,48720.56
2023-05-17T12:21:30.428Z,48742.13
2023-05-17T12:23:56.934Z,48734.28
2023-05-17T12:26:23.925Z,48726.44
2023-05-17T12:28:57.162Z,48744.06
2023-05-17T12:31:36.937Z,48728.41
2023-05-17T12:34:06.026Z,48736.25
2023-05-17T12:36:33.756Z,48738.19
2023-05-17T12:39:01.826Z,48738.19
2023-05-17T12:41:29.937Z,48734.28
2023-05-17T12:44:13.858Z,48738.19
2023-05-17T12:46:43.112Z,48740.16
2023-05-17T12:49:11.157Z,48738.19
2023-05-17T12:51:45.986Z,48730.38
2023-05-17T12:54:16.683Z,48742.13
2023-05-17T12:56:47.622Z,48753.88
2023-05-17T12:59:17.565Z,48746.03
2023-05-17T13:01:52.560Z,48710.78
2023-05-17T13:04:20.987Z,48706.84
2023-05-17T13:06:53.373Z,48734.28
2023-05-17T13:09:22.442Z,48755.84
2023-05-17T13:11:59.788Z,48773.47
2023-05-17T13:14:46.153Z,48722.53
2023-05-17T13:17:22.801Z,48761.72
2023-05-17T13:19:49.330Z,48734.28
2023-05-17T13:22:15.991Z,48742.13
2023-05-17T13:24:44.758Z,48746.03
2023-05-17T13:27:12.612Z,48742.13
2023-05-17T13:29:43.682Z,48734.28
2023-05-17T13:32:12.420Z,48718.59
2023-05-17T13:34:42.117Z,48736.25
2023-05-17T13:37:11.961Z,48726.44
2023-05-17T13:39:40.296Z,48722.53
2023-05-17T13:42:07.629Z,48730.38
2023-05-17T13:44:34.092Z,48740.16
2023-05-17T13:47:00.900Z,48718.59
2023-05-17T13:49:28.792Z,48744.06
2023-05-17T13:51:55.651Z,48767.59
2023-05-17T13:54:25.276Z,48742.13
2023-05-17T13:56:51.799Z,48742.13
2023-05-17T13:59:18.537Z,48765.63
2023-05-17T14:01:45.766Z,48718.59
2023-05-17T14:04:12.572Z,48726.44
2023-05-17T14:06:39.840Z,48726.44
2023-05-17T14:09:08.972Z,48726.44
2023-05-17T14:11:35.666Z,48740.16
2023-05-17T14:14:02.530Z,48746.03
2023-05-17T14:16:29.496Z,48734.28
2023-05-17T14:18:56.159Z,48742.13
2023-05-17T14:21:22.854Z,48755.84
2023-05-17T14:23:50.225Z,48765.63
2023-05-17T14:26:16.843Z,48730.38
2023-05-17T14:28:43.862Z,48740.16
2023-05-17T14:31:12.985Z,48738.19
2023-05-17T14:33:41.312Z,48742.13
2023-05-17T14:36:08.331Z,48722.53
2023-05-17T14:38:34.971Z,48738.19
2023-05-17T14:41:02.607Z,48742.13
2023-05-17T14:43:31.556Z,48761.72
2023-05-17T14:45:58.347Z,48746.03
2023-05-17T14:48:27.099Z,48734.28
2023-05-17T14:50:54.074Z,48730.38
2023-05-17T14:53:21.315Z,48730.38
2023-05-17T14:55:48.150Z,48742.13
2023-05-17T14:58:14.815Z,48753.88
2023-05-17T15:00:44.868Z,48767.59
2023-05-17T15:03:11.732Z,48738.19
2023-05-17T15:05:38.933Z,48734.28
2023-05-17T15:08:07.083Z,48718.59
2023-05-17T15:10:33.536Z,48718.59
2023-05-17T15:13:00.333Z,48718.59
2023-05-17T15:15:29.132Z,48710.78
2023-05-17T15:17:55.723Z,48714.69
2023-05-17T15:20:22.381Z,48742.13
2023-05-17T15:22:49.326Z,48706.84
2023-05-17T15:25:16.186Z,48726.44
2023-05-17T15:27:42.921Z,48726.44
2023-05-17T15:30:11.828Z,48714.69
2023-05-17T15:32:39.802Z,48753.88
2023-05-17T15:35:07.500Z,48726.44
2023-05-17T15:37:34.203Z,48746.03
2023-05-17T15:40:09.117Z,48746.03
2023-05-17T15:42:37.177Z,48746.03
2023-05-17T15:45:04.226Z,48746.03
2023-05-17T15:47:42.451Z,48714.69
2023-05-17T15:50:10.347Z,48718.59
2023-05-17T15:52:36.874Z,48714.69
2023-05-17T15:55:03.807Z,48734.28
2023-05-17T15:57:30.447Z,48706.84
2023-05-17T15:59:57.175Z,48734.28
2023-05-17T16:02:25.668Z,48746.03
2023-05-17T16:04:52.255Z,48706.84
2023-05-17T16:07:18.995Z,48746.03
2023-05-17T16:09:45.545Z,48702.94
2023-05-17T16:12:12.222Z,48742.13
2023-05-17T16:14:41.283Z,48710.78
2023-05-17T16:17:07.997Z,48720.56
2023-05-17T16:19:34.752Z,48742.13
2023-05-17T16:22:01.952Z,48751.91
2023-05-17T16:24:29.449Z,48742.13
2023-05-17T16:26:55.912Z,48740.16
2023-05-17T16:29:22.764Z,48726.44
2023-05-17T16:31:49.355Z,48726.44
2023-05-17T16:34:16.092Z,48730.38
2023-05-17T16:36:44.208Z,48726.44
2023-05-17T16:39:11.014Z,48712.72
2023-05-17T16:41:39.726Z,48726.44
2023-05-17T16:44:06.974Z,48728.41
2023-05-17T16:46:33.713Z,48706.84
2023-05-17T16:49:02.418Z,48718.59
2023-05-17T16:51:29.002Z,48714.69
2023-05-17T16:53:55.640Z,48730.38
2023-05-17T16:56:22.626Z,48718.59
2023-05-17T16:58:51.250Z,48753.88
2023-05-17T17:01:18.065Z,48738.19
2023-05-17T17:03:44.914Z,48722.53
2023-05-17T17:06:11.716Z,48730.38
2023-05-17T17:08:38.765Z,48722.53
2023-05-17T17:11:05.289Z,48710.78
2023-05-17T17:13:34.488Z,48710.78
2023-05-17T17:16:01.302Z,48730.38
2023-05-17T17:18:29.505Z,48726.44
2023-05-17T17:20:59.431Z,48726.44
2023-05-17T17:23:26.788Z,48714.69
2023-05-17T17:25:54.426Z,48738.19
2023-05-17T17:28:20.953Z,48718.59
2023-05-17T17:30:47.575Z,48691.19
2023-05-17T17:33:14.137Z,48732.31
2023-05-17T17:35:40.627Z,48714.69
2023-05-17T17:38:08.718Z,48734.28
2023-05-17T17:40:35.211Z,48722.53
2023-05-17T17:43:02.460Z,48702.94
2023-05-17T17:45:28.972Z,48714.69
2023-05-17T17:47:55.561Z,48724.50
2023-05-17T17:50:23.789Z,48726.44
2023-05-17T17:52:50.569Z,48712.72
2023-05-17T17:55:17.014Z,48718.59
2023-05-17T17:57:44.600Z,48742.13
2023-05-17T18:00:16.466Z,48706.84
2023-05-17T18:02:43.022Z,48693.16
2023-05-17T18:05:10.814Z,48736.25
2023-05-17T18:07:37.825Z,48742.13
2023-05-17T18:10:04.704Z,48726.44
2023-05-17T18:12:31.234Z,48718.59
2023-05-17T18:14:58.512Z,48718.59
2023-05-17T18:17:25.312Z,48702.94
2023-05-17T18:19:52.852Z,48704.91
2023-05-17T18:22:19.756Z,48706.84
2023-05-17T18:24:46.285Z,48736.25
2023-05-17T18:27:15.437Z,48730.38
2023-05-17T18:29:42.779Z,48728.41
2023-05-17T18:32:09.859Z,48724.50
2023-05-17T18:34:36.727Z,48695.09
2023-05-17T18:37:03.548Z,48700.97
2023-05-17T18:39:30.169Z,48700.97
2023-05-17T18:41:58.547Z,48726.44
2023-05-17T18:44:26.674Z,48710.78
2023-05-17T18:46:54.071Z,48699.03
2023-05-17T18:49:21.454Z,48706.84
2023-05-17T18:51:48.025Z,48695.09
2023-05-17T18:54:14.682Z,48704.91
2023-05-17T18:56:41.724Z,48726.44
2023-05-17T18:59:09.482Z,48687.28
2023-05-17T19:01:37.234Z,48704.91
2023-05-17T19:04:06.150Z,48730.38
2023-05-17T19:06:32.777Z,48706.84
2023-05-17T19:08:59.906Z,48714.69
2023-05-17T19:11:28.748Z,48691.19
2023-05-17T19:13:55.676Z,48710.78
2023-05-17T19:16:22.640Z,48722.53
2023-05-17T19:18:50.961Z,48706.84
2023-05-17T19:21:17.515Z,48687.28
2023-05-17T19:23:45.093Z,48710.78
2023-05-17T19:26:12.422Z,48714.69
2023-05-17T19:28:40.712Z,48710.78
2023-05-17T19:31:08.552Z,48714.69
2023-05-17T19:33:37.685Z,48724.50
2023-05-17T19:36:04.860Z,48718.59
2023-05-17T19:38:33.844Z,48699.03
2023-05-17T19:41:01.934Z,48700.97
2023-05-17T19:43:28.742Z,48699.03
2023-05-17T19:45:55.631Z,48693.16
2023-05-17T19:48:24.746Z,48702.94
2023-05-17T19:50:51.597Z,48699.03
2023-05-17T19:53:18.627Z,48714.69
2023-05-17T19:55:47.871Z,48687.28
2023-05-17T19:58:14.404Z,48695.09
2023-05-17T20:00:40.928Z,48691.19
2023-05-17T20:03:07.517Z,48697.06
2023-05-17T20:05:34.346Z,48702.94
2023-05-17T20:08:02.687Z,48714.69
2023-05-17T20:10:31.749Z,48710.78
2023-05-17T20:12:58.437Z,48714.69
2023-05-17T20:15:25.503Z,48708.81
2023-05-17T20:17:52.085Z,48687.28
2023-05-17T20:20:19.126Z,48710.78
2023-05-17T20:22:46.336Z,48710.78
2023-05-17T20:25:13.141Z,48695.09
2023-05-17T20:27:39.878Z,48693.16
2023-05-17T20:30:07.624Z,48695.09
2023-05-17T20:32:34.385Z,48730.38
2023-05-17T20:35:01.237Z,48718.59
2023-05-17T20:37:28.323Z,48706.84
2023-05-17T20:39:57.632Z,48716.66
2023-05-17T20:42:24.256Z,48706.84
2023-05-17T20:44:53.598Z,48695.09
2023-05-17T20:47:21.126Z,48710.78
2023-05-17T20:49:50.408Z,48699.03
2023-05-17T20:52:27.791Z,48699.03
2023-05-17T20:54:58.149Z,48697.06
2023-05-17T20:57:24.909Z,48675.50
2023-05-17T20:59:52.500Z,48699.03
2023-05-17T21:02:19.657Z,48704.91
2023-05-17T21:04:46.793Z,48704.91
2023-05-17T21:07:13.351Z,48710.78
2023-05-17T21:09:39.849Z,48673.56
2023-05-17T21:12:06.681Z,48683.34
2023-05-17T21:14:35.337Z,48722.53
2023-05-17T21:17:02.567Z,48697.06
2023-05-17T21:19:29.786Z,48691.19
2023-05-17T21:21:56.727Z,48695.09
2023-05-17T21:24:23.273Z,48679.44
2023-05-17T21:26:50.046Z,48675.50
2023-05-17T21:29:18.967Z,48693.16
2023-05-17T21:31:45.918Z,48702.94
2023-05-17T21:34:12.781Z,48681.41
2023-05-17T21:36:39.340Z,48714.69
2023-05-17T21:39:06.192Z,48691.19
2023-05-17T21:41:32.707Z,48683.34
2023-05-17T21:44:00.315Z,48702.94
2023-05-17T21:46:26.830Z,48691.19
2023-05-17T21:48:54.017Z,48695.09
2023-05-17T21:51:22.861Z,48699.03
2023-05-17T21:53:52.053Z,48691.19
2023-05-17T21:56:18.606Z,48679.44
2023-05-17T21:58:45.025Z,48695.09
2023-05-17T22:01:11.542Z,48697.06
2023-05-17T22:03:38.939Z,48706.84
2023-05-17T22:06:06.915Z,48679.44
2023-05-17T22:08:33.456Z,48679.44
2023-05-17T22:11:01.070Z,48691.19
2023-05-17T22:13:27.748Z,48695.09
2023-05-17T22:15:57.561Z,48675.50
2023-05-17T22:18:24.861Z,48671.59
2023-05-17T22:20:53.179Z,48663.75
2023-05-17T22:23:20.127Z,48667.69
2023-05-17T22:25:46.863Z,48675.50
2023-05-17T22:28:13.402Z,48679.44
2023-05-17T22:30:40.095Z,48677.47
2023-05-17T22:33:06.800Z,48659.84
2023-05-17T22:35:33.563Z,48702.94
2023-05-17T22:38:00.852Z,48675.50
2023-05-17T22:40:27.489Z,48679.44
2023-05-17T22:42:54.634Z,48671.59
2023-05-17T22:45:21.253Z,48679.44
2023-05-17T22:47:48.000Z,48687.28
2023-05-17T22:50:15.693Z,48689.22
2023-05-17T22:52:42.950Z,48687.28
2023-05-17T22:55:10.543Z,48679.44
2023-05-17T22:57:37.417Z,48683.34
2023-05-17T23:00:09.421Z,48675.50
2023-05-17T23:02:36.440Z,48702.94
2023-05-17T23:05:03.567Z,48687.28
2023-05-17T23:07:37.387Z,48687.28
2023-05-17T23:10:08.892Z,48669.63
2023-05-17T23:12:37.228Z,48671.59
2023-05-17T23:15:07.406Z,48669.63
2023-05-17T23:17:35.443Z,48687.28
2023-05-17T23:20:13.242Z,48669.63
2023-05-17T23:22:40.123Z,48652.00
2023-05-17T23:25:07.122Z,48687.28
2023-05-17T23:27:35.600Z,48679.44
2023-05-17T23:30:04.857Z,48667.69
2023-05-17T23:32:32.758Z,48675.50
2023-05-17T23:35:09.246Z,48659.84
2023-05-17T23:37:36.832Z,48677.47
2023-05-17T23:40:05.581Z,48679.44
2023-05-17T23:42:32.618Z,48679.44
2023-05-17T23:45:00.627Z,48679.44
2023-05-17T23:47:33.901Z,48677.47
2023-05-17T23:50:00.911Z,48667.69
2023-05-17T23:52:30.036Z,48679.44
2023-05-17T23:54:59.251Z,48699.03
2023-05-17T23:57:26.242Z,48691.19
2023-05-17T23:59:52.824Z,48679.44
